Time;durP1;ratioP1;P1;durP2;ratioP2;P2;SDS_P1;SDS_P2;PMS_P1;PMS_P2;Temp;Humidity;BMP_temperature;BMP_pressure;BME280_temperature;BME280_humidity;BME280_pressure;Samples;Min_cycle;Max_cycle;Signal;HPM_P1;HPM_P2
2021/04/14 00:00:46;;;;;;;2.63;1.25;;;-2.80;99.90;;;;;;4993689;28;20192;-72
2021/04/14 00:03:24;;;;;;;1.75;1.17;;;-2.90;99.90;;;;;;4994402;28;20223;-71
2021/04/14 00:05:52;;;;;;;1.35;1.08;;;-2.90;99.90;;;;;;4973955;28;20787;-73
2021/04/14 00:08:19;;;;;;;1.30;1.20;;;-2.90;99.90;;;;;;4982306;28;20190;-72
2021/04/14 00:10:45;;;;;;;1.23;1.10;;;-2.90;99.90;;;;;;4994083;28;20195;-73
2021/04/14 00:13:19;;;;;;;0.95;0.95;;;-2.90;99.90;;;;;;4987803;28;20215;-73
2021/04/14 00:15:49;;;;;;;1.20;1.10;;;-2.90;99.90;;;;;;4979204;28;20278;-72
2021/04/14 00:18:16;;;;;;;1.73;1.13;;;-2.90;99.90;;;;;;4993165;28;20615;-72
2021/04/14 00:20:42;;;;;;;1.10;1.10;;;-2.90;99.90;;;;;;4968183;28;20203;-73
2021/04/14 00:23:08;;;;;;;0.98;0.90;;;-2.90;99.90;;;;;;4993141;28;20199;-72
2021/04/14 00:25:38;;;;;;;1.20;1.10;;;-2.90;99.90;;;;;;4975532;28;20203;-72
2021/04/14 00:28:04;;;;;;;1.40;1.10;;;-2.90;99.90;;;;;;4980175;28;20199;-72
2021/04/14 00:30:30;;;;;;;2.80;1.13;;;-2.90;99.90;;;;;;4996390;28;20287;-71
2021/04/14 00:32:56;;;;;;;1.35;1.05;;;-3.00;99.90;;;;;;4992104;28;20215;-72
2021/04/14 00:35:24;;;;;;;1.30;1.20;;;-3.00;99.90;;;;;;4995361;28;20218;-72
2021/04/14 00:37:50;;;;;;;1.13;1.02;;;-3.10;99.90;;;;;;4998832;28;20503;-72
2021/04/14 00:40:29;;;;;;;1.15;1.05;;;-3.20;99.90;;;;;;4996767;28;20207;-72
2021/04/14 00:42:56;;;;;;;1.20;1.10;;;-3.20;99.90;;;;;;4998444;28;20365;-73
2021/04/14 00:45:22;;;;;;;1.40;1.10;;;-3.30;99.90;;;;;;4999262;28;20254;-72
2021/04/14 00:47:48;;;;;;;5.20;1.40;;;-3.30;99.90;;;;;;4978199;28;20230;-72
2021/04/14 00:50:17;;;;;;;1.88;1.30;;;-3.30;99.90;;;;;;4977548;28;20199;-73
2021/04/14 00:52:43;;;;;;;1.27;1.10;;;-3.40;99.90;;;;;;4977845;28;20689;-73
2021/04/14 00:55:14;;;;;;;1.33;1.20;;;-3.50;99.90;;;;;;4979886;28;20237;-72
2021/04/14 00:57:40;;;;;;;1.30;1.20;;;-3.50;99.90;;;;;;4993785;28;20205;-73
2021/04/14 01:00:09;;;;;;;1.13;1.02;;;-3.50;99.90;;;;;;4996397;28;20198;-72
2021/04/14 01:02:35;;;;;;;1.05;1.00;;;-3.50;99.90;;;;;;5024528;23;20228;-78
2021/04/14 01:05:02;;;;;;;1.30;1.20;;;-3.50;99.90;;;;;;5037775;28;20560;-78
2021/04/14 01:07:28;;;;;;;2.47;1.10;;;-3.50;99.90;;;;;;5056539;28;20196;-79
2021/04/14 01:09:54;;;;;;;3.17;1.15;;;-3.50;99.90;;;;;;5040249;28;20221;-78
2021/04/14 01:12:20;;;;;;;2.10;1.08;;;-3.60;99.90;;;;;;5056870;28;20700;-79
2021/04/14 01:14:46;;;;;;;1.02;1.02;;;-3.60;99.90;;;;;;5055247;28;20654;-79
2021/04/14 01:17:11;;;;;;;1.15;1.05;;;-3.60;99.90;;;;;;5057187;28;20192;-80
2021/04/14 01:19:37;;;;;;;2.55;1.10;;;-3.60;99.90;;;;;;5040156;28;20303;-78
2021/04/14 01:22:03;;;;;;;2.45;1.00;;;-3.70;99.90;;;;;;5041767;28;20541;-82
2021/04/14 01:24:32;;;;;;;1.05;1.02;;;-3.70;99.90;;;;;;5056468;28;20565;-79
2021/04/14 01:26:57;;;;;;;1.20;1.10;;;-3.70;99.90;;;;;;5039129;28;20216;-82
2021/04/14 01:29:23;;;;;;;1.75;0.98;;;-3.70;99.90;;;;;;5040294;28;20683;-81
2021/04/14 01:31:49;;;;;;;2.58;1.20;;;-3.80;99.90;;;;;;5042848;28;20287;-79
2021/04/14 01:34:17;;;;;;;1.23;1.00;;;-3.80;99.90;;;;;;5058417;28;20197;-80
2021/04/14 01:36:43;;;;;;;3.78;1.10;;;-3.70;99.90;;;;;;5058213;28;20251;-80
2021/04/14 01:39:11;;;;;;;1.52;1.15;;;-3.70;99.90;;;;;;5043053;28;20224;-80
2021/04/14 01:41:38;;;;;;;1.13;1.02;;;-3.70;99.90;;;;;;5058355;28;20204;-80
2021/04/14 01:44:04;;;;;;;1.05;0.98;;;-3.70;99.90;;;;;;5046210;28;20729;-80
2021/04/14 01:46:33;;;;;;;1.00;1.00;;;-3.70;99.90;;;;;;5042479;28;20674;-79
2021/04/14 01:48:59;;;;;;;2.55;1.20;;;-3.70;99.90;;;;;;5059289;28;20220;-79
2021/04/14 01:51:25;;;;;;;1.30;1.20;;;-3.70;99.90;;;;;;5056124;28;20201;-79
2021/04/14 01:53:50;;;;;;;1.10;1.00;;;-3.70;99.90;;;;;;5057703;28;20200;-80
2021/04/14 01:56:16;;;;;;;0.98;0.98;;;-3.80;99.90;;;;;;5055016;28;20200;-80
2021/04/14 01:58:43;;;;;;;1.00;1.00;;;-3.70;99.90;;;;;;5061812;28;20311;-78
2021/04/14 02:01:10;;;;;;;1.02;1.00;;;-3.70;99.90;;;;;;5041358;28;20279;-79
2021/04/14 02:03:40;;;;;;;0.95;0.95;;;-3.70;99.90;;;;;;5056204;28;20783;-79
2021/04/14 02:06:11;;;;;;;1.20;1.10;;;-3.80;99.90;;;;;;5044844;28;20209;-79
2021/04/14 02:08:39;;;;;;;1.30;1.20;;;-3.80;99.90;;;;;;5058766;28;20671;-80
2021/04/14 02:11:06;;;;;;;1.27;1.10;;;-3.80;99.90;;;;;;5061218;28;20599;-78
2021/04/14 02:13:37;;;;;;;1.08;1.00;;;-3.90;99.90;;;;;;5042693;28;20619;-80
2021/04/14 02:16:05;;;;;;;2.10;1.10;;;-3.90;99.90;;;;;;5042422;28;20188;-79
2021/04/14 02:18:30;;;;;;;2.20;1.10;;;-4.00;99.90;;;;;;5058942;28;20784;-80
2021/04/14 02:20:57;;;;;;;1.73;1.08;;;-3.90;99.90;;;;;;5056521;28;20196;-80
2021/04/14 02:23:27;;;;;;;1.13;1.02;;;-3.90;99.90;;;;;;5057453;28;20197;-81
2021/04/14 02:25:57;;;;;;;1.00;1.00;;;-3.90;99.90;;;;;;5039363;28;20193;-80
2021/04/14 02:28:23;;;;;;;1.17;1.08;;;-3.90;99.90;;;;;;5043829;28;20281;-80
2021/04/14 02:30:50;;;;;;;2.22;1.27;;;-4.00;99.90;;;;;;5041444;28;20427;-80
2021/04/14 02:33:16;;;;;;;1.25;1.10;;;-4.00;99.90;;;;;;5039308;28;20204;-80
2021/04/14 02:35:42;;;;;;;1.00;1.00;;;-4.00;99.90;;;;;;5056155;28;20335;-79
2021/04/14 02:38:10;;;;;;;1.27;1.15;;;-4.00;99.90;;;;;;5046558;28;20350;-80
2021/04/14 02:40:36;;;;;;;1.25;1.10;;;-4.00;99.90;;;;;;5055860;28;20223;-80
2021/04/14 02:43:02;;;;;;;1.38;1.00;;;-4.00;99.90;;;;;;5044473;28;20307;-82
2021/04/14 02:45:31;;;;;;;1.30;1.20;;;-4.00;99.90;;;;;;5056580;28;20193;-80
2021/04/14 02:47:57;;;;;;;1.67;1.13;;;-4.10;99.90;;;;;;5044717;28;20207;-80
2021/04/14 02:50:23;;;;;;;1.20;1.10;;;-4.10;99.90;;;;;;5043266;28;20578;-81
2021/04/14 02:52:49;;;;;;;1.13;1.02;;;-4.20;99.90;;;;;;5041680;28;20347;-80
2021/04/14 02:55:18;;;;;;;1.83;1.20;;;-4.20;99.90;;;;;;5059401;28;20268;-79
2021/04/14 02:57:44;;;;;;;1.20;1.10;;;-4.10;99.90;;;;;;5037496;28;20227;-78
2021/04/14 03:00:10;;;;;;;1.58;1.20;;;-4.00;99.90;;;;;;5040947;28;20225;-79
2021/04/14 03:02:37;;;;;;;1.52;1.20;;;-4.00;99.90;;;;;;5044366;28;20607;-80
2021/04/14 03:05:05;;;;;;;2.50;1.00;;;-4.00;99.90;;;;;;5043944;28;20188;-80
2021/04/14 03:07:30;;;;;;;1.00;1.00;;;-4.00;99.90;;;;;;5060457;28;20320;-79
2021/04/14 03:09:56;;;;;;;1.20;1.10;;;-4.00;99.90;;;;;;5039678;28;20276;-79
2021/04/14 03:12:22;;;;;;;1.00;1.00;;;-4.10;99.90;;;;;;5043265;28;20222;-80
2021/04/14 03:14:49;;;;;;;1.17;1.08;;;-4.20;99.90;;;;;;5046584;28;20202;-80
2021/04/14 03:17:15;;;;;;;1.40;1.10;;;-4.30;99.90;;;;;;5059951;28;20197;-79
2021/04/14 03:19:41;;;;;;;1.17;1.08;;;-4.30;99.90;;;;;;5047154;28;20205;-78
2021/04/14 03:22:07;;;;;;;1.45;1.15;;;-4.20;99.90;;;;;;5044463;28;20247;-80
2021/04/14 03:24:33;;;;;;;1.30;1.00;;;-4.20;99.90;;;;;;5042209;28;20736;-79
2021/04/14 03:26:59;;;;;;;1.20;1.10;;;-4.10;99.90;;;;;;5059527;28;20208;-80
2021/04/14 03:29:25;;;;;;;1.15;1.05;;;-4.10;99.90;;;;;;5060816;28;20227;-83
2021/04/14 03:31:50;;;;;;;1.38;1.02;;;-4.00;99.90;;;;;;5058505;28;20271;-80
2021/04/14 03:34:16;;;;;;;1.17;1.08;;;-3.90;99.90;;;;;;5054347;28;20239;-79
2021/04/14 03:36:42;;;;;;;1.15;1.08;;;-3.90;99.90;;;;;;5045662;28;20199;-78
2021/04/14 03:39:08;;;;;;;1.20;1.10;;;-3.90;99.90;;;;;;5040675;28;20285;-79
2021/04/14 03:41:34;;;;;;;1.25;0.95;;;-3.80;99.90;;;;;;5056318;28;20197;-80
2021/04/14 03:44:01;;;;;;;1.60;1.10;;;-3.90;99.90;;;;;;5046608;28;20704;-75
2021/04/14 03:46:26;;;;;;;1.05;1.00;;;-3.90;99.90;;;;;;5056893;28;20196;-76
2021/04/14 03:48:53;;;;;;;1.17;1.10;;;-4.10;99.90;;;;;;5056917;28;20713;-75
2021/04/14 03:51:20;;;;;;;1.40;1.20;;;-4.20;99.90;;;;;;5045156;28;20472;-76
2021/04/14 03:53:46;;;;;;;1.20;1.10;;;-4.30;99.90;;;;;;5035500;28;20207;-76
2021/04/14 03:56:14;;;;;;;1.10;1.00;;;-4.30;99.90;;;;;;5043764;28;20200;-74
2021/04/14 03:58:45;;;;;;;1.20;1.10;;;-4.40;99.90;;;;;;5041309;28;20211;-75
2021/04/14 04:01:20;;;;;;;1.95;1.20;;;-4.40;99.90;;;;;;5043787;28;20197;-78
2021/04/14 04:03:46;;;;;;;1.27;1.17;;;-4.40;99.90;;;;;;5054768;28;21184;-80
2021/04/14 04:06:11;;;;;;;1.40;1.30;;;-4.40;99.90;;;;;;5058432;28;20203;-78
2021/04/14 04:08:37;;;;;;;1.20;1.10;;;-4.50;99.90;;;;;;5042448;28;20197;-79
2021/04/14 04:11:04;;;;;;;2.25;1.20;;;-4.50;99.90;;;;;;5042498;28;20327;-79
2021/04/14 04:13:31;;;;;;;1.10;1.10;;;-4.50;99.90;;;;;;5042762;28;20197;-78
2021/04/14 04:15:56;;;;;;;1.17;1.02;;;-4.50;99.90;;;;;;5043741;28;20255;-77
2021/04/14 04:18:22;;;;;;;1.75;1.15;;;-4.50;99.90;;;;;;5053937;28;20210;-77
2021/04/14 04:20:48;;;;;;;1.02;1.00;;;-4.50;99.90;;;;;;5061009;28;20371;-76
2021/04/14 04:23:14;;;;;;;1.35;1.25;;;-4.40;99.90;;;;;;5059889;28;20200;-75
2021/04/14 04:25:40;;;;;;;1.05;0.95;;;-4.50;99.90;;;;;;5042663;28;20758;-75
2021/04/14 04:28:06;;;;;;;1.60;1.20;;;-4.40;99.90;;;;;;5043877;28;20563;-74
2021/04/14 04:30:33;;;;;;;3.95;1.30;;;-4.40;99.90;;;;;;5041833;28;20207;-76
2021/04/14 04:32:59;;;;;;;1.20;1.10;;;-4.30;99.90;;;;;;5039169;28;20250;-78
2021/04/14 04:35:29;;;;;;;1.33;1.23;;;-4.30;99.90;;;;;;5061666;28;20537;-77
2021/04/14 04:37:55;;;;;;;2.65;1.30;;;-4.20;99.90;;;;;;5044027;28;20224;-77
2021/04/14 04:40:22;;;;;;;1.15;1.05;;;-4.10;99.90;;;;;;5057072;28;20733;-79
2021/04/14 04:42:48;;;;;;;1.73;1.30;;;-4.00;99.90;;;;;;5049159;28;20909;-77
2021/04/14 04:45:17;;;;;;;1.65;1.30;;;-4.00;99.90;;;;;;5046952;28;20205;-79
2021/04/14 04:47:44;;;;;;;1.38;1.20;;;-3.90;99.90;;;;;;5062241;28;20630;-79
2021/04/14 04:50:11;;;;;;;3.67;1.40;;;-3.90;99.90;;;;;;5062763;28;20223;-80
2021/04/14 04:52:37;;;;;;;2.35;1.55;;;-3.80;99.90;;;;;;5050034;28;20200;-78
2021/04/14 04:55:04;;;;;;;2.55;1.67;;;-3.70;99.90;;;;;;5068376;28;20535;-79
2021/04/14 04:57:30;;;;;;;2.58;1.65;;;-3.70;99.90;;;;;;5063210;28;20204;-77
2021/04/14 04:59:56;;;;;;;2.53;2.03;;;-3.60;99.90;;;;;;5062770;28;20219;-79
2021/04/14 05:02:22;;;;;;;2.15;1.88;;;-3.50;99.90;;;;;;5047841;28;20682;-80
2021/04/14 05:04:47;;;;;;;5.70;2.10;;;-3.40;99.90;;;;;;5068456;28;20189;-80
2021/04/14 05:07:13;;;;;;;6.20;2.88;;;-3.30;99.90;;;;;;5060633;28;20193;-79
2021/04/14 05:09:39;;;;;;;9.00;3.30;;;-3.20;99.90;;;;;;5055655;28;20201;-78
2021/04/14 05:12:05;;;;;;;9.57;4.28;;;-3.10;99.90;;;;;;5063449;28;20236;-80
2021/04/14 05:14:31;;;;;;;8.77;4.07;;;-3.00;99.90;;;;;;5060626;28;20613;-79
2021/04/14 05:16:56;;;;;;;9.57;4.03;;;-2.90;99.90;;;;;;5062907;28;20643;-80
2021/04/14 05:19:22;;;;;;;10.27;4.20;;;-2.80;99.90;;;;;;5067099;28;20662;-80
2021/04/14 05:21:48;;;;;;;6.00;3.15;;;-2.60;99.90;;;;;;5066828;28;20204;-79
2021/04/14 05:24:14;;;;;;;6.30;3.00;;;-2.50;99.90;;;;;;5061187;28;20393;-80
2021/04/14 05:26:39;;;;;;;7.82;3.53;;;-2.40;99.90;;;;;;5059079;28;20273;-80
2021/04/14 05:29:06;;;;;;;5.47;2.80;;;-2.30;99.90;;;;;;5041402;28;20196;-79
2021/04/14 05:31:36;;;;;;;8.25;2.80;;;-2.20;99.90;;;;;;5056440;28;20225;-80
2021/04/14 05:34:01;;;;;;;5.85;2.60;;;-2.10;99.90;;;;;;5057528;28;20211;-79
2021/04/14 05:36:27;;;;;;;4.75;2.65;;;-2.00;99.90;;;;;;5038043;28;20572;-79
2021/04/14 05:38:53;;;;;;;4.65;2.53;;;-1.80;99.90;;;;;;5063356;28;20624;-80
2021/04/14 05:41:20;;;;;;;5.43;2.83;;;-1.70;99.90;;;;;;5044375;28;20358;-80
2021/04/14 05:43:47;;;;;;;5.40;2.63;;;-1.60;99.90;;;;;;5045450;28;20248;-80
2021/04/14 05:46:15;;;;;;;8.20;3.08;;;-1.50;99.90;;;;;;5041982;28;20208;-80
2021/04/14 05:48:43;;;;;;;13.98;3.90;;;-1.50;99.90;;;;;;5045772;28;20288;-80
2021/04/14 05:51:12;;;;;;;7.88;3.60;;;-1.30;99.90;;;;;;5048382;28;20197;-79
2021/04/14 05:53:39;;;;;;;9.43;3.30;;;-1.20;99.90;;;;;;5064404;28;20193;-80
2021/04/14 05:56:07;;;;;;;4.88;2.72;;;-1.00;99.90;;;;;;5065192;28;20193;-80
2021/04/14 05:58:33;;;;;;;4.07;2.38;;;-0.80;99.90;;;;;;5058807;28;20776;-79
2021/04/14 06:01:00;;;;;;;2.47;1.80;;;-0.60;99.90;;;;;;5061838;28;20308;-79
2021/04/14 06:03:26;;;;;;;3.67;1.70;;;-0.50;99.90;;;;;;5064705;28;20216;-81
2021/04/14 06:05:53;;;;;;;2.85;2.08;;;-0.30;99.90;;;;;;5045871;28;20254;-81
2021/04/14 06:08:19;;;;;;;1.88;1.50;;;-0.20;99.90;;;;;;5045468;28;20203;-81
2021/04/14 06:10:45;;;;;;;5.00;2.10;;;-0.10;99.90;;;;;;5063321;28;20527;-78
2021/04/14 06:13:11;;;;;;;2.58;1.73;;;0.10;99.90;;;;;;5044218;28;20212;-78
2021/04/14 06:15:37;;;;;;;4.55;1.90;;;0.20;99.90;;;;;;5064503;28;20732;-78
2021/04/14 06:18:04;;;;;;;8.98;2.13;;;0.30;99.90;;;;;;5059153;28;20210;-77
2021/04/14 06:20:33;;;;;;;1.58;1.40;;;0.50;99.90;;;;;;5058257;28;20201;-77
2021/04/14 06:23:00;;;;;;;2.28;1.52;;;0.60;99.90;;;;;;5058258;28;20259;-78
2021/04/14 06:25:27;;;;;;;2.10;1.60;;;0.70;99.90;;;;;;5039828;28;20205;-78
2021/04/14 06:28:05;;;;;;;2.65;1.58;;;0.90;99.90;;;;;;5046749;28;20209;-79
2021/04/14 06:30:32;;;;;;;2.10;1.50;;;1.10;99.90;;;;;;5047361;28;20197;-78
2021/04/14 06:32:58;;;;;;;6.45;1.40;;;1.20;99.90;;;;;;5059516;28;20209;-79
2021/04/14 06:35:24;;;;;;;2.00;1.30;;;1.40;99.90;;;;;;5055417;28;20537;-78
2021/04/14 06:37:51;;;;;;;3.85;1.65;;;1.60;99.90;;;;;;5056643;28;20189;-79
2021/04/14 06:43:12;;;;;;;1.65;1.10;;;2.00;99.90;;;;;;5056282;28;20201;-77
2021/04/14 06:45:47;;;;;;;2.65;1.20;;;2.00;99.90;;;;;;5062172;28;20197;-78
2021/04/14 06:48:21;;;;;;;3.50;1.15;;;2.20;99.90;;;;;;5042568;28;20189;-79
2021/04/14 06:50:59;;;;;;;1.55;1.10;;;2.40;99.90;;;;;;5038720;28;20287;-79
2021/04/14 06:54:01;;;;;;;1.42;1.10;;;2.50;99.90;;;;;;5060197;28;20204;-79
2021/04/14 06:56:28;;;;;;;1.63;1.20;;;2.80;99.90;;;;;;5048248;28;20291;-78
2021/04/14 06:58:58;;;;;;;3.03;1.23;;;2.90;99.90;;;;;;5059107;28;20231;-78
2021/04/14 07:01:37;;;;;;;1.85;1.20;;;3.20;99.90;;;;;;5047580;28;20196;-79
2021/04/14 07:04:06;;;;;;;1.67;1.15;;;3.40;99.90;;;;;;5046711;28;20240;-78
2021/04/14 07:06:34;;;;;;;2.58;1.30;;;3.60;99.90;;;;;;5057674;28;20205;-79
2021/04/14 07:09:21;;;;;;;1.27;1.10;;;3.70;99.90;;;;;;5056794;28;20292;-78
2021/04/14 07:11:46;;;;;;;3.08;0.90;;;3.80;99.90;;;;;;5057055;28;20548;-78
2021/04/14 07:14:14;;;;;;;1.85;1.10;;;4.10;99.90;;;;;;5060351;28;20326;-78
2021/04/14 07:17:08;;;;;;;1.55;1.02;;;4.20;99.90;;;;;;5044055;28;20246;-79
2021/04/14 07:19:53;;;;;;;0.90;0.90;;;4.30;99.90;;;;;;5058882;28;20193;-79
2021/04/14 07:22:42;;;;;;;1.20;1.10;;;4.40;99.90;;;;;;5059729;28;20762;-79
2021/04/14 07:25:26;;;;;;;1.13;0.90;;;4.60;99.90;;;;;;5045242;28;20765;-79
2021/04/14 07:28:00;;;;;;;2.10;1.85;;;4.70;99.90;;;;;;5032834;28;20739;-79
2021/04/14 07:30:35;;;;;;;1.10;0.85;;;4.90;99.90;;;;;;5058554;28;20250;-79
2021/04/14 07:33:15;;;;;;;2.63;1.08;;;5.00;99.90;;;;;;5045889;28;20678;-78
2021/04/14 07:35:57;;;;;;;1.52;0.82;;;5.20;99.90;;;;;;5037322;28;20193;-80
2021/04/14 07:38:56;;;;;;;1.65;0.90;;;5.50;99.90;;;;;;5056908;28;20650;-79
2021/04/14 07:41:38;;;;;;;1.90;1.00;;;5.60;99.90;;;;;;5038469;28;20197;-79
2021/04/14 07:44:10;;;;;;;1.65;0.90;;;5.80;99.90;;;;;;5057102;28;20590;-78
2021/04/14 07:46:38;;;;;;;1.83;1.08;;;5.80;99.90;;;;;;5060577;28;20192;-78
2021/04/14 07:49:05;;;;;;;1.40;1.00;;;6.00;99.90;;;;;;5059117;28;20792;-78
2021/04/14 07:51:31;;;;;;;1.75;1.20;;;6.20;99.90;;;;;;5056945;28;20278;-78
2021/04/14 07:54:02;;;;;;;2.05;1.13;;;6.40;99.90;;;;;;5041460;28;20201;-79
2021/04/14 07:56:39;;;;;;;2.05;0.98;;;6.40;99.90;;;;;;5060972;28;20284;-79
2021/04/14 07:59:07;;;;;;;0.80;0.80;;;6.50;99.90;;;;;;5029193;28;20197;-79
2021/04/14 08:01:35;;;;;;;0.80;0.80;;;6.60;99.90;;;;;;5044270;28;20200;-79
2021/04/14 08:04:30;;;;;;;0.82;0.82;;;6.60;99.90;;;;;;5036090;28;20317;-79
2021/04/14 08:07:33;;;;;;;1.10;1.00;;;6.60;99.90;;;;;;5032099;28;20322;-78
2021/04/14 08:10:04;;;;;;;1.27;1.00;;;6.70;95.80;;;;;;5045306;28;20635;-77
2021/04/14 08:13:01;;;;;;;1.10;0.90;;;6.70;98.90;;;;;;5052966;28;20270;-78
2021/04/14 08:15:30;;;;;;;0.85;0.80;;;6.70;99.50;;;;;;5038392;28;21507;-79
2021/04/14 08:18:25;;;;;;;0.70;0.70;;;7.00;99.40;;;;;;5056325;28;20189;-80
2021/04/14 08:21:08;;;;;;;1.10;1.00;;;7.10;99.60;;;;;;5059532;28;20565;-79
2021/04/14 08:23:34;;;;;;;1.10;1.00;;;7.30;99.90;;;;;;5041080;28;20277;-80
2021/04/14 08:26:02;;;;;;;0.70;0.70;;;7.50;97.80;;;;;;5039190;28;20197;-80
2021/04/14 08:28:36;;;;;;;0.80;0.80;;;7.80;95.50;;;;;;5041035;28;20332;-80
2021/04/14 08:31:49;;;;;;;0.80;0.80;;;7.70;93.70;;;;;;5041295;28;20544;-79
2021/04/14 08:34:29;;;;;;;1.40;0.80;;;7.70;92.60;;;;;;5050553;28;20835;-80
2021/04/14 08:37:18;;;;;;;1.15;0.80;;;7.80;92.60;;;;;;5055426;28;20242;-79
2021/04/14 08:39:54;;;;;;;1.45;0.80;;;7.80;93.60;;;;;;5041040;28;20228;-78
2021/04/14 08:42:20;;;;;;;1.30;1.00;;;7.90;94.60;;;;;;5056178;28;20696;-80
2021/04/14 08:44:48;;;;;;;0.90;0.90;;;8.10;93.00;;;;;;5055902;28;20271;-80
2021/04/14 08:47:22;;;;;;;2.25;1.00;;;8.20;94.30;;;;;;5041276;28;20192;-80
2021/04/14 08:49:55;;;;;;;5.07;1.00;;;8.40;92.30;;;;;;5056940;28;20192;-80
2021/04/14 08:52:22;;;;;;;0.90;0.90;;;8.70;94.30;;;;;;5058130;28;20212;-80
2021/04/14 08:54:49;;;;;;;1.00;0.80;;;9.20;93.80;;;;;;5052415;28;21089;-80
2021/04/14 08:57:18;;;;;;;2.10;0.93;;;9.20;91.90;;;;;;5044005;28;20218;-81
2021/04/14 08:59:44;;;;;;;1.05;0.95;;;9.30;91.40;;;;;;5057570;28;20205;-80
2021/04/14 09:02:14;;;;;;;1.00;0.80;;;9.70;92.10;;;;;;5055883;28;20201;-80
2021/04/14 09:04:46;;;;;;;1.23;0.90;;;9.90;87.70;;;;;;5056591;28;20205;-80
2021/04/14 09:07:16;;;;;;;0.77;0.75;;;9.30;81.00;;;;;;5041894;28;20594;-80
2021/04/14 09:09:46;;;;;;;1.25;0.80;;;8.70;83.70;;;;;;5051350;28;20200;-79
2021/04/14 09:12:12;;;;;;;0.90;0.90;;;8.30;88.90;;;;;;5040428;28;20701;-80
2021/04/14 09:14:38;;;;;;;1.20;0.80;;;8.60;89.80;;;;;;5056985;28;20204;-80
2021/04/14 09:17:13;;;;;;;2.00;1.10;;;8.90;85.40;;;;;;5038328;28;20193;-79
2021/04/14 09:19:47;;;;;;;0.80;0.80;;;9.20;80.90;;;;;;5056206;28;20275;-80
2021/04/14 09:22:13;;;;;;;1.45;0.90;;;9.20;81.90;;;;;;5040530;28;20203;-80
2021/04/14 09:24:49;;;;;;;2.70;0.80;;;9.40;89.80;;;;;;5052730;28;20201;-81
2021/04/14 09:27:36;;;;;;;1.00;0.80;;;9.90;87.90;;;;;;5057915;28;20679;-79
2021/04/14 09:30:17;;;;;;;0.90;0.80;;;10.40;81.70;;;;;;5051442;28;20717;-80
2021/04/14 09:32:45;;;;;;;0.80;0.80;;;10.50;82.40;;;;;;5039259;28;20205;-80
2021/04/14 09:35:13;;;;;;;2.00;0.80;;;10.70;80.70;;;;;;5034556;28;20198;-80
2021/04/14 09:37:39;;;;;;;1.17;0.80;;;10.80;79.20;;;;;;5051738;28;20639;-80
2021/04/14 09:40:06;;;;;;;2.63;0.90;;;10.40;77.80;;;;;;5052892;28;20192;-80
2021/04/14 09:42:41;;;;;;;0.80;0.80;;;9.80;77.50;;;;;;5055504;28;20193;-80
2021/04/14 09:45:25;;;;;;;0.65;0.65;;;9.20;81.60;;;;;;5031397;28;20599;-80
2021/04/14 09:47:52;;;;;;;0.85;0.85;;;9.40;81.00;;;;;;5054073;28;20427;-80
2021/04/14 09:50:23;;;;;;;0.82;0.70;;;8.90;78.10;;;;;;5055482;28;20192;-80
2021/04/14 09:52:53;;;;;;;0.98;0.80;;;8.70;80.20;;;;;;5051436;28;20270;-81
2021/04/14 09:55:31;;;;;;;2.08;0.93;;;9.20;81.80;;;;;;5056009;28;20224;-80
2021/04/14 09:58:03;;;;;;;0.70;0.70;;;10.00;82.30;;;;;;5045583;28;20192;-79
2021/04/14 10:00:32;;;;;;;0.70;0.70;;;10.60;77.70;;;;;;5059225;28;20192;-80
2021/04/14 10:03:05;;;;;;;0.70;0.70;;;10.90;76.20;;;;;;5060630;28;20291;-80
2021/04/14 10:05:31;;;;;;;0.70;0.70;;;10.80;75.50;;;;;;5058966;28;20439;-81
2021/04/14 10:08:03;;;;;;;0.80;0.70;;;11.10;74.00;;;;;;5042244;28;20205;-81
2021/04/14 10:10:37;;;;;;;1.05;0.80;;;11.30;72.40;;;;;;5039173;28;20504;-81
2021/04/14 10:13:09;;;;;;;1.00;0.80;;;10.30;72.10;;;;;;5056044;28;20545;-81
2021/04/14 10:15:39;;;;;;;1.25;0.90;;;10.20;75.50;;;;;;5061432;28;20197;-81
2021/04/14 10:18:27;;;;;;;0.70;0.70;;;10.40;76.60;;;;;;5044520;28;20204;-80
2021/04/14 10:20:54;;;;;;;2.03;0.73;;;10.70;76.00;;;;;;5053924;28;20296;-82
2021/04/14 10:23:24;;;;;;;2.03;0.73;;;11.20;73.80;;;;;;5060731;28;20208;-82
2021/04/14 10:26:00;;;;;;;0.93;0.80;;;11.00;66.70;;;;;;5062855;28;20736;-81
2021/04/14 10:28:27;;;;;;;0.70;0.70;;;11.20;70.30;;;;;;5058210;28;20197;-82
2021/04/14 10:31:09;;;;;;;0.70;0.70;;;11.30;68.90;;;;;;5054571;28;20206;-81
2021/04/14 10:33:37;;;;;;;0.70;0.70;;;11.70;68.50;;;;;;5034026;28;20208;-81
2021/04/14 10:36:31;;;;;;;2.10;0.80;;;11.60;65.60;;;;;;5057594;28;20319;-83
2021/04/14 10:39:08;;;;;;;0.68;0.60;;;11.80;64.20;;;;;;5042525;28;20655;-80
2021/04/14 10:41:34;;;;;;;2.15;0.70;;;12.00;63.00;;;;;;5039217;28;20196;-80
2021/04/14 10:43:59;;;;;;;0.70;0.70;;;12.00;63.00;;;;;;5057551;28;20565;-82
2021/04/14 10:46:29;;;;;;;0.70;0.70;;;11.60;63.80;;;;;;5057678;28;20221;-81
2021/04/14 10:49:03;;;;;;;0.80;0.80;;;11.60;66.30;;;;;;5056485;28;20281;-81
2021/04/14 10:51:45;;;;;;;1.02;0.80;;;11.90;70.50;;;;;;5048777;28;20627;-81
2021/04/14 10:54:13;;;;;;;3.33;0.88;;;12.60;65.30;;;;;;5059084;28;20205;-80
2021/04/14 10:56:39;;;;;;;2.08;0.90;;;12.60;66.60;;;;;;5056492;28;20204;-82
2021/04/14 10:59:14;;;;;;;0.75;0.75;;;12.50;61.00;;;;;;5042401;28;20693;-81
2021/04/14 11:01:46;;;;;;;4.57;0.80;;;12.20;62.30;;;;;;5036583;28;20211;-81
2021/04/14 11:04:15;;;;;;;1.42;0.80;;;11.80;61.70;;;;;;5053611;28;20248;-80
2021/04/14 11:06:45;;;;;;;2.55;0.80;;;12.10;66.30;;;;;;5043209;28;20207;-81
2021/04/14 11:09:12;;;;;;;1.85;1.05;;;11.90;61.50;;;;;;5054543;28;20762;-82
2021/04/14 11:11:39;;;;;;;1.10;0.95;;;12.10;61.60;;;;;;5059790;28;20205;-81
2021/04/14 11:14:08;;;;;;;1.67;1.00;;;12.00;61.80;;;;;;5037915;28;20216;-82
2021/04/14 11:16:38;;;;;;;0.80;0.80;;;12.00;64.00;;;;;;5058048;28;20192;-82
2021/04/14 11:19:21;;;;;;;0.80;0.80;;;12.20;64.80;;;;;;5037297;28;20197;-83
2021/04/14 11:22:04;;;;;;;1.48;0.90;;;12.10;59.70;;;;;;5035484;28;20544;-81
2021/04/14 11:24:30;;;;;;;3.22;0.70;;;12.00;65.60;;;;;;5039222;28;20200;-82
2021/04/14 11:27:00;;;;;;;2.88;0.82;;;12.30;62.60;;;;;;5039045;28;20196;-83
2021/04/14 11:29:32;;;;;;;1.08;0.90;;;12.20;62.20;;;;;;5054019;28;20203;-82
2021/04/14 11:31:59;;;;;;;1.70;0.90;;;12.40;64.30;;;;;;5056404;28;20527;-82
2021/04/14 11:34:31;;;;;;;3.60;0.90;;;12.50;61.00;;;;;;5053911;28;20193;-82
2021/04/14 11:37:03;;;;;;;1.25;0.95;;;12.60;62.10;;;;;;5057134;28;20683;-82
2021/04/14 11:39:35;;;;;;;1.48;0.80;;;12.80;64.80;;;;;;5051695;28;20412;-83
2021/04/14 11:42:11;;;;;;;1.38;0.85;;;12.80;58.60;;;;;;5055046;28;20633;-83
2021/04/14 11:44:39;;;;;;;3.13;0.70;;;12.60;64.00;;;;;;5040010;28;20210;-83
2021/04/14 11:47:06;;;;;;;0.70;0.70;;;12.70;61.30;;;;;;5043139;28;20193;-83
2021/04/14 11:49:37;;;;;;;1.15;0.80;;;12.20;60.00;;;;;;5036049;28;20536;-83
2021/04/14 11:52:30;;;;;;;1.20;0.77;;;12.20;63.60;;;;;;5041952;28;20415;-83
2021/04/14 11:54:57;;;;;;;0.80;0.80;;;12.50;60.60;;;;;;5057499;28;20998;-83
2021/04/14 11:57:38;;;;;;;1.35;0.77;;;12.90;58.70;;;;;;5037766;28;20201;-83
2021/04/14 12:00:16;;;;;;;0.88;0.70;;;12.30;60.20;;;;;;5058364;28;20223;-83
2021/04/14 12:02:43;;;;;;;1.58;0.80;;;12.30;61.40;;;;;;5055271;28;20225;-83
2021/04/14 12:05:10;;;;;;;0.70;0.70;;;12.30;59.70;;;;;;5038751;28;20208;-81
2021/04/14 12:07:36;;;;;;;2.38;0.77;;;12.80;60.70;;;;;;5040366;28;20304;-82
2021/04/14 12:10:03;;;;;;;1.13;0.90;;;13.00;59.40;;;;;;5043150;28;20200;-82
2021/04/14 12:12:28;;;;;;;1.38;0.70;;;13.10;60.70;;;;;;5059347;28;20210;-82
2021/04/14 12:14:54;;;;;;;2.58;0.68;;;13.50;60.80;;;;;;5053663;28;20198;-83
2021/04/14 12:17:20;;;;;;;1.08;0.73;;;14.20;59.90;;;;;;5056651;28;20225;-83
2021/04/14 12:19:46;;;;;;;1.08;0.70;;;14.60;58.70;;;;;;5057714;28;20220;-83
2021/04/14 12:22:21;;;;;;;0.70;0.70;;;14.30;56.90;;;;;;5063060;28;20820;-83
2021/04/14 12:24:47;;;;;;;1.90;0.70;;;14.50;58.50;;;;;;5042043;28;20229;-83
2021/04/14 12:27:13;;;;;;;0.70;0.70;;;14.40;57.30;;;;;;5043535;28;20212;-83
2021/04/14 12:29:39;;;;;;;0.65;0.65;;;14.20;55.60;;;;;;5038290;28;20203;-83
2021/04/14 12:32:05;;;;;;;1.10;0.82;;;13.80;57.30;;;;;;5040779;28;20220;-83
2021/04/14 12:34:31;;;;;;;0.70;0.70;;;13.60;58.50;;;;;;5041835;28;20338;-84
2021/04/14 12:36:57;;;;;;;1.05;0.70;;;13.60;57.80;;;;;;5055759;28;20656;-84
2021/04/14 12:39:24;;;;;;;0.90;0.80;;;14.00;59.00;;;;;;5037012;28;20811;-84
2021/04/14 12:41:50;;;;;;;1.60;0.70;;;14.00;58.00;;;;;;5050707;28;20204;-85
2021/04/14 12:44:16;;;;;;;3.92;0.80;;;14.30;59.60;;;;;;5041124;28;20670;-86
2021/04/14 12:46:44;;;;;;;0.85;0.80;;;14.70;57.70;;;;;;5051604;28;20236;-85
2021/04/14 12:49:12;;;;;;;0.68;0.68;;;14.70;57.00;;;;;;5040226;28;20304;-85
2021/04/14 12:51:51;;;;;;;1.52;0.88;;;14.80;55.20;;;;;;5057908;28;20299;-85
2021/04/14 12:54:24;;;;;;;0.70;0.70;;;14.50;54.90;;;;;;5038736;28;20197;-85
2021/04/14 12:57:07;;;;;;;0.75;0.60;;;14.50;58.70;;;;;;5057705;28;20659;-84
2021/04/14 12:59:43;;;;;;;0.70;0.70;;;14.50;55.60;;;;;;5053024;28;20189;-85
2021/04/14 13:02:29;;;;;;;0.60;0.60;;;14.50;56.20;;;;;;5034781;28;20205;-85
2021/04/14 13:05:14;;;;;;;0.70;0.70;;;14.60;56.60;;;;;;5037952;28;20224;-85
2021/04/14 13:07:54;;;;;;;0.65;0.63;;;14.80;57.30;;;;;;5055174;28;20717;-84